createdAt,value
2022-10-01T00:00:26.493Z,0.45
2022-10-01T00:02:55.708Z,0.70
2022-10-01T00:05:22.352Z,0.40
2022-10-01T00:07:48.936Z,0.40
2022-10-01T00:10:15.862Z,0.60
2022-10-01T00:12:48.900Z,0.60
2022-10-01T00:15:16.142Z,0.50
2022-10-01T00:17:43.314Z,0.40
2022-10-01T00:20:14.711Z,0.50
2022-10-01T00:22:41.286Z,0.77
2022-10-01T00:25:08.016Z,0.55
2022-10-01T00:27:35.456Z,0.55
2022-10-01T00:30:05.803Z,0.60
2022-10-01T00:32:32.461Z,0.67
2022-10-01T00:35:03.278Z,0.55
2022-10-01T00:37:29.687Z,0.40
2022-10-01T00:39:56.003Z,0.40
2022-10-01T00:42:23.870Z,0.30
2022-10-01T00:44:50.898Z,0.38
2022-10-01T00:47:44.759Z,0.50
2022-10-01T00:50:11.138Z,0.52
2022-10-01T00:52:40.774Z,0.60
2022-10-01T00:55:11.813Z,0.40
2022-10-01T00:57:38.412Z,0.50
2022-10-01T01:00:06.364Z,0.43
2022-10-01T01:02:32.830Z,0.40
2022-10-01T01:04:59.492Z,0.40
2022-10-01T01:07:27.121Z,0.50
2022-10-01T01:09:54.371Z,0.30
2022-10-01T01:12:33.549Z,0.60
2022-10-01T01:15:19.498Z,0.40
2022-10-01T01:17:48.836Z,0.50
2022-10-01T01:20:27.139Z,0.40
2022-10-01T01:23:06.170Z,0.30
2022-10-01T01:25:41.929Z,0.50
2022-10-01T01:28:14.483Z,0.60
2022-10-01T01:30:41.331Z,0.60
2022-10-01T01:33:13.066Z,0.63
2022-10-01T01:35:44.127Z,0.40
2022-10-01T01:38:15.469Z,0.38
2022-10-01T01:40:53.305Z,0.52
2022-10-01T01:43:22.671Z,0.52
2022-10-01T01:45:50.695Z,0.85
2022-10-01T01:48:17.275Z,0.73
2022-10-01T01:50:47.992Z,1.05
2022-10-01T01:53:15.177Z,0.52
2022-10-01T01:55:41.946Z,1.15
2022-10-01T01:58:08.296Z,0.80
2022-10-01T02:00:35.132Z,0.50
2022-10-01T02:03:01.710Z,0.73
2022-10-01T02:05:32.984Z,0.52
2022-10-01T02:08:02.155Z,0.50
2022-10-01T02:10:28.458Z,0.70
2022-10-01T02:13:08.239Z,0.50
2022-10-01T02:15:53.202Z,0.43
2022-10-01T02:18:20.186Z,1.23
2022-10-01T02:20:49.302Z,0.57
2022-10-01T02:23:17.078Z,0.70
2022-10-01T02:25:46.384Z,0.85
2022-10-01T02:28:18.313Z,0.65
2022-10-01T02:30:45.099Z,0.68
2022-10-01T02:33:13.987Z,0.63
2022-10-01T02:35:41.580Z,0.57
2022-10-01T02:38:09.504Z,0.90
2022-10-01T02:40:38.444Z,0.57
2022-10-01T02:43:14.558Z,1.00
2022-10-01T02:45:42.844Z,0.65
2022-10-01T02:48:11.203Z,0.40
2022-10-01T02:50:50.097Z,0.57
2022-10-01T02:53:27.041Z,0.70
2022-10-01T02:55:53.851Z,0.88
2022-10-01T02:58:20.226Z,0.43
2022-10-01T03:00:46.552Z,0.70
2022-10-01T03:03:12.868Z,0.70
2022-10-01T03:05:39.299Z,0.43
2022-10-01T03:08:05.701Z,0.95
2022-10-01T03:10:32.051Z,0.80
2022-10-01T03:13:00.140Z,0.75
2022-10-01T03:15:26.493Z,0.70
2022-10-01T03:17:52.971Z,0.45
2022-10-01T03:20:19.759Z,0.50
2022-10-01T03:22:46.747Z,0.60
2022-10-01T03:25:13.711Z,0.57
2022-10-01T03:27:40.054Z,0.85
2022-10-01T03:30:06.916Z,0.60
2022-10-01T03:32:33.256Z,0.82
2022-10-01T03:34:59.631Z,0.80
2022-10-01T03:37:26.085Z,0.68
2022-10-01T03:39:52.408Z,0.70
2022-10-01T03:42:18.739Z,0.65
2022-10-01T03:44:45.089Z,0.52
2022-10-01T03:47:11.645Z,0.90
2022-10-01T03:49:38.190Z,0.70
2022-10-01T03:52:06.085Z,0.50
2022-10-01T03:54:32.488Z,0.55
2022-10-01T03:56:58.918Z,0.60
2022-10-01T03:59:27.146Z,0.65
2022-10-01T04:01:54.309Z,1.13
2022-10-01T04:04:20.770Z,0.85
2022-10-01T04:06:47.140Z,1.13
2022-10-01T04:09:13.461Z,0.70
2022-10-01T04:11:39.791Z,0.77
2022-10-01T04:14:06.192Z,0.70
2022-10-01T04:16:34.875Z,0.63
2022-10-01T04:19:01.557Z,0.77
2022-10-01T04:21:28.026Z,0.80
2022-10-01T04:23:54.642Z,0.80
2022-10-01T04:26:21.018Z,0.57
2022-10-01T04:28:47.601Z,0.70
2022-10-01T04:31:27.214Z,0.50
2022-10-01T04:33:54.939Z,0.70
2022-10-01T04:36:21.734Z,0.80
2022-10-01T04:38:50.645Z,0.70
2022-10-01T04:41:17.089Z,0.88
2022-10-01T04:43:43.436Z,0.70
2022-10-01T04:46:10.102Z,1.10
2022-10-01T04:48:36.622Z,0.93
2022-10-01T04:51:03.065Z,0.80
2022-10-01T04:53:29.658Z,0.60
2022-10-01T04:55:56.418Z,0.50
2022-10-01T04:58:23.027Z,0.93
2022-10-01T05:00:50.348Z,0.50
2022-10-01T05:03:17.210Z,0.50
2022-10-01T05:05:43.745Z,0.80
2022-10-01T05:08:10.542Z,0.40
2022-10-01T05:10:37.181Z,0.50
2022-10-01T05:13:03.544Z,0.63
2022-10-01T05:15:30.590Z,0.55
2022-10-01T05:17:57.217Z,0.55
2022-10-01T05:20:24.304Z,0.68
2022-10-01T05:22:50.784Z,0.55
2022-10-01T05:25:18.263Z,1.08
2022-10-01T05:27:45.380Z,0.60
2022-10-01T05:30:17.768Z,0.82
2022-10-01T05:32:53.337Z,0.90
2022-10-01T05:35:19.741Z,0.63
2022-10-01T05:37:46.151Z,0.70
2022-10-01T05:40:12.551Z,0.50
2022-10-01T05:42:39.050Z,0.93
2022-10-01T05:45:05.818Z,0.90
2022-10-01T05:47:32.222Z,1.05
2022-10-01T05:49:58.643Z,0.65
2022-10-01T05:52:25.267Z,0.80
2022-10-01T05:54:58.762Z,1.02
2022-10-01T05:57:25.536Z,1.00
2022-10-01T05:59:51.994Z,0.68
2022-10-01T06:02:18.528Z,0.77
2022-10-01T06:04:45.063Z,0.65
2022-10-01T06:07:11.694Z,0.65
2022-10-01T06:09:38.432Z,0.70
2022-10-01T06:12:10.763Z,0.38
2022-10-01T06:14:37.463Z,0.70
2022-10-01T06:17:04.400Z,0.82
2022-10-01T06:19:30.824Z,0.85
2022-10-01T06:21:57.229Z,0.80
2022-10-01T06:24:24.225Z,1.00
2022-10-01T06:26:50.631Z,0.50
2022-10-01T06:29:17.193Z,0.65
2022-10-01T06:31:49.716Z,0.68
2022-10-01T06:34:16.474Z,0.68
2022-10-01T06:36:43.122Z,0.98
2022-10-01T06:39:09.711Z,0.65
2022-10-01T06:41:36.460Z,0.55
2022-10-01T06:44:03.694Z,0.68
2022-10-01T06:46:30.391Z,0.43
2022-10-01T06:48:56.795Z,0.77
2022-10-01T06:51:43.686Z,0.68
2022-10-01T06:54:10.694Z,0.60
2022-10-01T06:56:37.388Z,1.08
2022-10-01T06:59:06.522Z,0.70
2022-10-01T07:01:33.736Z,0.80
2022-10-01T07:04:07.307Z,0.70
2022-10-01T07:06:36.714Z,0.75
2022-10-01T07:09:04.548Z,0.60
2022-10-01T07:11:35.407Z,0.82
2022-10-01T07:16:34.290Z,0.73
2022-10-01T07:19:00.625Z,0.40
2022-10-01T07:21:27.221Z,0.40
2022-10-01T07:23:54.562Z,0.50
2022-10-01T07:26:21.124Z,0.93
2022-10-01T07:28:47.535Z,0.70
2022-10-01T07:31:14.502Z,0.45
2022-10-01T07:33:41.303Z,0.93
2022-10-01T07:36:08.860Z,0.40
2022-10-01T07:38:36.879Z,0.70
2022-10-01T07:41:05.861Z,0.80
2022-10-01T07:43:32.756Z,0.52
2022-10-01T07:46:00.184Z,0.70
2022-10-01T07:48:27.571Z,0.70
2022-10-01T07:50:53.890Z,0.85
2022-10-01T07:53:20.314Z,0.45
2022-10-01T07:55:46.702Z,0.68
2022-10-01T07:58:13.259Z,0.73
2022-10-01T08:00:39.677Z,0.47
2022-10-01T08:03:06.121Z,0.22
2022-10-01T08:05:33.626Z,0.55
2022-10-01T08:08:01.020Z,1.08
2022-10-01T08:10:27.923Z,0.40
2022-10-01T08:13:01.436Z,0.30
2022-10-01T08:15:28.780Z,0.60
2022-10-01T08:17:55.308Z,0.50
2022-10-01T08:20:21.671Z,0.60
2022-10-01T08:22:48.027Z,0.90
2022-10-01T08:25:14.486Z,0.60
2022-10-01T08:27:40.922Z,0.75
2022-10-01T08:30:07.688Z,0.50
2022-10-01T08:32:34.052Z,0.68
2022-10-01T08:35:01.267Z,0.43
2022-10-01T08:37:28.522Z,0.40
2022-10-01T08:39:55.697Z,0.68
2022-10-01T08:42:40.946Z,0.70
2022-10-01T08:45:13.911Z,1.05
2022-10-01T08:48:06.744Z,0.47
2022-10-01T08:50:40.009Z,0.65
2022-10-01T08:53:11.840Z,0.45
2022-10-01T08:55:40.157Z,0.22
2022-10-01T08:58:09.982Z,1.27
2022-10-01T09:00:39.194Z,0.50
2022-10-01T09:03:06.838Z,0.55
2022-10-01T09:05:42.758Z,0.57
2022-10-01T09:08:43.632Z,0.40
2022-10-01T09:11:22.288Z,0.30
2022-10-01T09:14:06.354Z,0.47
2022-10-01T09:16:41.471Z,0.90
2022-10-01T09:19:15.398Z,0.90
2022-10-01T09:21:47.307Z,0.60
2022-10-01T09:24:22.546Z,0.32
2022-10-01T09:26:48.912Z,0.38
2022-10-01T09:29:17.441Z,0.32
2022-10-01T09:31:47.186Z,0.60
2022-10-01T09:34:15.153Z,0.57
2022-10-01T09:36:47.639Z,0.40
2022-10-01T09:39:22.397Z,0.22
2022-10-01T09:41:48.863Z,0.68
2022-10-01T09:44:18.910Z,0.63
2022-10-01T09:46:46.602Z,0.40
2022-10-01T09:49:27.285Z,0.60
2022-10-01T09:51:57.629Z,0.57
2022-10-01T09:54:33.919Z,0.35
2022-10-01T09:57:10.683Z,0.60
2022-10-01T09:59:49.551Z,0.55
2022-10-01T10:02:19.926Z,0.32
2022-10-01T10:04:47.313Z,0.20
2022-10-01T10:07:17.608Z,0.28
2022-10-01T10:09:44.087Z,0.33
2022-10-01T10:12:24.308Z,0.30
2022-10-01T10:14:50.681Z,0.25
2022-10-01T10:17:17.085Z,0.30
2022-10-01T10:19:51.695Z,0.40
2022-10-01T10:22:23.361Z,0.38
2022-10-01T10:24:49.888Z,0.30
2022-10-01T10:27:43.288Z,1.05
2022-10-01T10:30:16.703Z,0.22
2022-10-01T10:32:43.751Z,0.70
2022-10-01T10:35:13.267Z,0.30
2022-10-01T10:37:45.632Z,0.63
2022-10-01T10:40:20.169Z,0.40
2022-10-01T10:42:47.908Z,0.38
2022-10-01T10:45:16.980Z,0.50
2022-10-01T10:47:48.478Z,0.30
2022-10-01T10:50:27.174Z,0.30
2022-10-01T10:52:53.603Z,0.63
2022-10-01T10:55:30.295Z,0.55
2022-10-01T10:58:09.904Z,0.50
2022-10-01T11:00:43.151Z,0.40
2022-10-01T11:03:13.867Z,0.47
2022-10-01T11:05:41.480Z,0.43
2022-10-01T11:08:11.962Z,0.65
2022-10-01T11:10:59.331Z,1.15
2022-10-01T11:13:46.888Z,0.47
2022-10-01T11:16:24.761Z,0.63
2022-10-01T11:18:51.171Z,0.40
2022-10-01T11:21:39.371Z,0.50
2022-10-01T11:24:24.700Z,0.50
2022-10-01T11:27:07.045Z,0.50
2022-10-01T11:29:45.512Z,0.70
2022-10-01T11:32:41.612Z,0.40
2022-10-01T11:35:19.922Z,0.93
2022-10-01T11:37:59.762Z,0.43
2022-10-01T11:40:28.757Z,0.32
2022-10-01T11:42:58.084Z,0.43
2022-10-01T11:45:27.235Z,0.45
2022-10-01T11:48:15.986Z,0.38
2022-10-01T11:50:43.526Z,0.93
2022-10-01T11:53:21.462Z,0.95
2022-10-01T11:56:19.118Z,0.45
2022-10-01T11:58:54.758Z,0.40
2022-10-01T12:01:24.393Z,1.13
2022-10-01T12:03:53.800Z,0.55
2022-10-01T12:06:26.804Z,0.40
2022-10-01T12:09:00.294Z,0.25
2022-10-01T12:11:31.806Z,0.63
2022-10-01T12:14:03.619Z,0.40
2022-10-01T12:16:40.498Z,0.30
2022-10-01T12:19:13.180Z,0.32
2022-10-01T12:21:41.531Z,0.50
2022-10-01T12:24:15.482Z,0.47
2022-10-01T12:26:41.816Z,0.22
2022-10-01T12:29:10.937Z,0.30
2022-10-01T12:31:41.908Z,0.32
2022-10-01T12:34:17.183Z,0.40
2022-10-01T12:36:49.627Z,0.35
2022-10-01T12:39:39.371Z,0.30
2022-10-01T12:42:24.472Z,0.20
2022-10-01T12:44:50.798Z,0.22
2022-10-01T12:47:21.785Z,0.30
2022-10-01T12:50:01.648Z,0.30
2022-10-01T12:53:03.434Z,0.38
2022-10-01T12:55:40.188Z,0.20
2022-10-01T12:58:20.974Z,0.20
2022-10-01T13:00:52.528Z,0.40
2022-10-01T13:03:38.215Z,0.30
2022-10-01T13:06:19.081Z,0.43
2022-10-01T13:08:48.174Z,0.30
2022-10-01T13:11:20.745Z,0.20
2022-10-01T13:13:53.677Z,0.30
2022-10-01T13:16:23.715Z,0.30
2022-10-01T13:18:59.127Z,0.20
2022-10-01T13:21:30.439Z,0.30
2022-10-01T13:24:04.687Z,0.40
2022-10-01T13:26:46.823Z,0.20
2022-10-01T13:29:19.051Z,0.30
2022-10-01T13:31:57.243Z,0.20
2022-10-01T13:34:25.967Z,0.30
2022-10-01T13:36:52.445Z,0.50
2022-10-01T13:39:23.371Z,0.50
2022-10-01T13:41:53.403Z,0.40
2022-10-01T13:44:33.923Z,0.30
2022-10-01T13:47:03.207Z,0.28
2022-10-01T13:49:30.721Z,0.20
2022-10-01T13:51:57.574Z,0.22
2022-10-01T13:54:27.799Z,0.20
2022-10-01T13:56:54.177Z,0.50
2022-10-01T13:59:31.235Z,0.20
2022-10-01T14:01:57.762Z,0.30
2022-10-01T14:04:43.546Z,0.20
2022-10-01T14:07:18.067Z,0.28
2022-10-01T14:09:45.531Z,0.20
2022-10-01T14:12:39.883Z,0.40
2022-10-01T14:15:33.111Z,0.20
2022-10-01T14:18:01.255Z,0.20
2022-10-01T14:20:30.690Z,0.20
2022-10-01T14:23:02.194Z,0.20
2022-10-01T14:25:50.309Z,0.20
2022-10-01T14:28:38.372Z,0.20
2022-10-01T14:31:07.788Z,0.20
2022-10-01T14:33:40.440Z,0.13
2022-10-01T14:36:28.535Z,0.20
2022-10-01T14:39:14.771Z,0.40
2022-10-01T14:41:41.224Z,0.30
2022-10-01T14:44:24.916Z,0.20
2022-10-01T14:46:52.127Z,0.20
2022-10-01T14:49:24.063Z,0.20
2022-10-01T14:51:51.893Z,0.20
2022-10-01T14:54:19.293Z,0.20
2022-10-01T14:56:45.987Z,0.30
2022-10-01T14:59:21.486Z,0.20
2022-10-01T15:01:54.534Z,0.10
2022-10-01T15:04:21.947Z,0.30
2022-10-01T15:06:48.560Z,0.15
2022-10-01T15:09:18.503Z,0.20
2022-10-01T15:11:46.199Z,0.20
2022-10-01T15:14:17.738Z,0.40
2022-10-01T15:16:44.534Z,0.25
2022-10-01T15:19:15.647Z,0.22
2022-10-01T15:21:46.997Z,0.10
2022-10-01T15:24:33.758Z,0.45
2022-10-01T15:27:00.753Z,0.20
2022-10-01T15:29:27.403Z,0.30
2022-10-01T15:31:56.454Z,0.25
2022-10-01T15:34:24.186Z,0.20
2022-10-01T15:36:51.158Z,0.20
2022-10-01T15:39:34.971Z,0.10
2022-10-01T15:42:05.997Z,0.20
2022-10-01T15:44:45.379Z,0.10
2022-10-01T15:47:20.725Z,0.40
2022-10-01T15:50:00.974Z,0.10
2022-10-01T15:52:46.500Z,0.20
2022-10-01T15:55:15.271Z,0.10
2022-10-01T15:57:42.206Z,0.20
2022-10-01T16:00:21.326Z,0.10
2022-10-01T16:02:48.176Z,0.30
2022-10-01T16:05:16.877Z,0.20
2022-10-01T16:07:46.665Z,0.30
2022-10-01T16:10:25.368Z,0.30
2022-10-01T16:12:51.848Z,0.17
2022-10-01T16:15:27.338Z,0.20
2022-10-01T16:18:02.613Z,0.15
2022-10-01T16:20:34.590Z,0.17
2022-10-01T16:23:19.853Z,0.10
2022-10-01T16:25:46.345Z,0.20
2022-10-01T16:28:25.822Z,0.20
2022-10-01T16:30:52.248Z,0.20
2022-10-01T16:33:18.785Z,0.20
2022-10-01T16:35:47.196Z,0.20
2022-10-01T16:38:13.555Z,0.30
2022-10-01T16:40:42.183Z,0.20
2022-10-01T16:43:14.918Z,0.20
2022-10-01T16:45:42.888Z,0.10
2022-10-01T16:48:13.060Z,0.20
2022-10-01T16:50:39.447Z,0.22
2022-10-01T16:53:05.866Z,0.20
2022-10-01T16:55:35.887Z,0.10
2022-10-01T16:58:03.050Z,0.10
2022-10-01T17:00:29.795Z,0.20
2022-10-01T17:02:56.640Z,0.20
2022-10-01T17:05:25.457Z,0.20
2022-10-01T17:07:57.743Z,0.20
2022-10-01T17:10:24.130Z,0.38
2022-10-01T17:12:50.627Z,0.10
2022-10-01T17:15:19.079Z,0.20
2022-10-01T17:17:46.152Z,0.38
2022-10-01T17:20:12.993Z,0.20
2022-10-01T17:22:39.466Z,0.20
2022-10-01T17:25:06.581Z,0.22
2022-10-01T17:27:32.956Z,0.22
2022-10-01T17:29:59.362Z,0.20
2022-10-01T17:32:25.823Z,0.20
2022-10-01T17:34:53.717Z,0.35
2022-10-01T17:37:20.256Z,0.20
2022-10-01T17:39:47.204Z,0.30
2022-10-01T17:42:15.102Z,0.20
2022-10-01T17:44:41.490Z,0.13
2022-10-01T17:47:09.033Z,0.20
2022-10-01T17:49:35.532Z,0.20
2022-10-01T17:52:01.910Z,0.20
2022-10-01T17:54:28.349Z,0.30
2022-10-01T17:56:55.351Z,0.30
2022-10-01T17:59:21.956Z,0.20
2022-10-01T18:01:48.486Z,0.30
2022-10-01T18:04:14.972Z,0.22
2022-10-01T18:06:41.408Z,0.30
2022-10-01T18:09:07.907Z,0.25
2022-10-01T18:11:34.240Z,0.20
2022-10-01T18:14:00.663Z,0.20
2022-10-01T18:16:27.250Z,0.20
2022-10-01T18:21:41.005Z,0.30
2022-10-01T18:24:07.407Z,0.63
2022-10-01T18:26:34.151Z,0.20
2022-10-01T18:29:03.302Z,0.32
2022-10-01T18:31:35.291Z,0.17
2022-10-01T18:34:02.601Z,0.17
2022-10-01T18:36:38.360Z,0.30
2022-10-01T18:39:17.521Z,0.30
2022-10-01T18:41:44.258Z,0.30
2022-10-01T18:44:13.988Z,0.22
2022-10-01T18:46:46.167Z,0.20
2022-10-01T18:49:17.597Z,0.20
2022-10-01T18:51:52.460Z,0.30
2022-10-01T18:54:37.636Z,0.30
2022-10-01T18:57:16.152Z,0.40
2022-10-01T19:00:03.306Z,0.13
2022-10-01T19:02:54.090Z,0.20
2022-10-01T19:05:38.884Z,0.20
2022-10-01T19:08:24.762Z,0.20
2022-10-01T19:11:10.980Z,0.30
2022-10-01T19:13:45.515Z,0.20
2022-10-01T19:16:18.669Z,0.20
2022-10-01T19:19:04.172Z,0.55
2022-10-01T19:21:39.741Z,0.10
2022-10-01T19:24:20.422Z,0.10
2022-10-01T19:26:54.726Z,0.28
2022-10-01T19:29:33.291Z,0.10
2022-10-01T19:32:03.829Z,0.20
2022-10-01T19:34:52.027Z,0.20
2022-10-01T19:37:33.563Z,0.20
2022-10-01T19:40:03.347Z,0.15
2022-10-01T19:42:38.038Z,0.20
2022-10-01T19:45:11.918Z,0.20
2022-10-01T19:47:43.773Z,0.28
2022-10-01T19:50:19.883Z,0.30
2022-10-01T19:52:50.530Z,0.20
2022-10-01T19:55:18.177Z,0.15
2022-10-01T19:57:44.977Z,0.30
2022-10-01T20:00:18.182Z,0.45
2022-10-01T20:02:54.535Z,0.15
2022-10-01T20:05:25.121Z,0.20
2022-10-01T20:07:59.096Z,0.40
2022-10-01T20:10:29.493Z,0.20
2022-10-01T20:13:14.336Z,0.40
2022-10-01T20:15:45.835Z,0.30
2022-10-01T20:18:15.181Z,0.20
2022-10-01T20:20:45.684Z,0.10
2022-10-01T20:23:33.954Z,0.20
2022-10-01T20:26:11.785Z,0.20
2022-10-01T20:29:01.573Z,0.40
2022-10-01T20:31:39.465Z,0.52
2022-10-01T20:34:19.164Z,0.20
2022-10-01T20:37:08.873Z,0.20
2022-10-01T20:39:41.689Z,0.20
2022-10-01T20:42:16.060Z,0.50
2022-10-01T20:44:42.452Z,0.10
2022-10-01T20:47:16.410Z,0.30
2022-10-01T20:49:47.341Z,0.20
2022-10-01T20:52:22.797Z,0.20
2022-10-01T20:54:53.145Z,0.30
2022-10-01T20:57:31.305Z,0.20
2022-10-01T21:00:02.584Z,0.32
2022-10-01T21:02:41.400Z,0.30
2022-10-01T21:05:13.969Z,0.73
2022-10-01T21:07:47.875Z,0.30
2022-10-01T21:10:19.348Z,0.20
2022-10-01T21:12:51.805Z,0.35
2022-10-01T21:15:18.834Z,0.35
2022-10-01T21:17:59.265Z,0.20
2022-10-01T21:20:45.801Z,0.20
2022-10-01T21:23:33.838Z,0.20
2022-10-01T21:26:05.339Z,0.15
2022-10-01T21:28:44.221Z,0.20
2022-10-01T21:31:20.317Z,0.30
2022-10-01T21:33:54.221Z,0.20
2022-10-01T21:36:31.294Z,0.30
2022-10-01T21:39:17.337Z,0.20
2022-10-01T21:41:48.155Z,0.20
2022-10-01T21:44:33.096Z,0.20
2022-10-01T21:47:12.903Z,0.20
2022-10-01T21:49:47.804Z,0.17
2022-10-01T21:52:34.790Z,0.40
2022-10-01T21:55:23.713Z,0.28
2022-10-01T21:58:08.141Z,0.25
2022-10-01T22:00:34.756Z,0.20
2022-10-01T22:03:09.677Z,0.30
2022-10-01T22:05:51.402Z,0.20
2022-10-01T22:08:18.735Z,0.20
2022-10-01T22:10:53.333Z,0.20
2022-10-01T22:13:30.703Z,0.20
2022-10-01T22:16:00.374Z,0.45
2022-10-01T22:18:29.587Z,0.20
2022-10-01T22:20:56.317Z,0.20
2022-10-01T22:23:22.911Z,0.45
2022-10-01T22:26:01.014Z,0.20
2022-10-01T22:28:30.347Z,0.30
2022-10-01T22:30:58.191Z,0.52
2022-10-01T22:33:28.094Z,0.20
2022-10-01T22:35:57.947Z,0.20
2022-10-01T22:38:39.725Z,0.20
2022-10-01T22:41:10.215Z,0.20
2022-10-01T22:43:37.334Z,0.20
2022-10-01T22:46:17.864Z,0.28
2022-10-01T22:48:44.295Z,0.30
2022-10-01T22:51:10.695Z,0.20
2022-10-01T22:53:47.155Z,0.20
2022-10-01T22:56:16.878Z,0.20
2022-10-01T22:58:59.139Z,0.20
2022-10-01T23:01:31.616Z,0.20
2022-10-01T23:04:06.760Z,0.20
2022-10-01T23:06:45.326Z,0.32
2022-10-01T23:09:26.539Z,0.20
2022-10-01T23:14:30.215Z,0.32
2022-10-01T23:17:12.067Z,0.20
2022-10-01T23:19:45.142Z,0.35
2022-10-01T23:22:23.435Z,0.20
2022-10-01T23:25:15.543Z,0.20
2022-10-01T23:27:41.967Z,0.80
2022-10-01T23:30:14.266Z,0.20
2022-10-01T23:33:03.097Z,0.30
2022-10-01T23:35:48.170Z,0.20
2022-10-01T23:38:33.543Z,0.20
2022-10-01T23:41:02.619Z,0.20
2022-10-01T23:43:32.236Z,0.20
2022-10-01T23:46:03.851Z,0.40
2022-10-01T23:48:34.303Z,0.25
2022-10-01T23:51:23.029Z,0.20
2022-10-01T23:53:53.700Z,0.22
2022-10-01T23:56:41.710Z,0.20
2022-10-01T23:59:20.408Z,0.10
